Terminal Aerodrome Forecast
Issued by NWS North Platte, NE

Home | Current Version | Previous Version | Graphics & Text | Print | Product List | Glossary On
Versions: 1 2 3 4 5 6 7 8 9 10 11 12 13 14
770
FTUS43 KLBF 210520
TAFVTN
TAF
KVTN 210520Z 2106/2206 28007KT P6SM SCT110
     FM211500 31012KT P6SM FEW250
     FM211800 31012G18KT P6SM BKN080
     FM220100 28006KT P6SM BKN110=

USA.gov is the U.S. government's official web portal to all federal, state and local government web resources and services.